Time;durP1;ratioP1;P1;durP2;ratioP2;P2;SDS_P1;SDS_P2;PMS_P1;PMS_P2;Temp;Humidity;BMP_temperature;BMP_pressure;BME280_temperature;BME280_humidity;BME280_pressure;Samples;Min_cycle;Max_cycle;Signal;HPM_P1;HPM_P2
2023/04/20 00:00:33;;;;;;;6.38;3.38;;;;;;;8.81;37.86;102173.59;5035557;28;20045;-62
2023/04/20 00:03:02;;;;;;;9.10;2.88;;;;;;;8.81;37.93;102173.59;5033925;28;20053;-63
2023/04/20 00:05:30;;;;;;;6.35;3.13;;;;;;;8.77;38.40;102161.50;5042196;28;20041;-63
2023/04/20 00:08:00;;;;;;;7.15;3.10;;;;;;;8.82;37.62;102167.09;5033172;28;20057;-62
2023/04/20 00:10:27;;;;;;;6.85;2.75;;;;;;;8.73;38.00;102168.44;5033741;28;20147;-61
2023/04/20 00:12:55;;;;;;;5.55;2.70;;;;;;;8.60;38.03;102160.41;5031747;28;20049;-62
2023/04/20 00:15:23;;;;;;;9.63;3.45;;;;;;;8.69;38.51;102159.09;5037455;28;20053;-64
2023/04/20 00:17:51;;;;;;;6.70;2.95;;;;;;;8.63;38.69;102154.53;5044480;28;20045;-63
2023/04/20 00:20:20;;;;;;;5.43;3.15;;;;;;;8.66;37.94;102145.94;5036049;28;20050;-63
2023/04/20 00:22:47;;;;;;;10.23;2.80;;;;;;;8.64;38.07;102145.34;5047596;28;20535;-63
2023/04/20 00:25:15;;;;;;;5.95;2.80;;;;;;;8.49;38.38;102135.63;5037189;28;20043;-64
2023/04/20 00:27:44;;;;;;;5.15;2.70;;;;;;;8.48;38.65;102133.97;5037856;28;20053;-63
2023/04/20 00:30:12;;;;;;;8.63;3.10;;;;;;;8.51;38.73;102130.81;5041671;28;20405;-62
2023/04/20 00:32:40;;;;;;;6.90;3.17;;;;;;;8.46;38.97;102127.91;5003249;28;20060;-63
2023/04/20 00:35:08;;;;;;;5.57;3.22;;;;;;;8.49;39.23;102121.19;5051474;28;20091;-62
2023/04/20 00:37:36;;;;;;;10.02;3.22;;;;;;;8.47;39.23;102116.00;4999851;28;20512;-66
2023/04/20 00:40:05;;;;;;;8.18;3.20;;;;;;;8.47;39.32;102116.00;5039596;28;20044;-61
2023/04/20 00:42:33;;;;;;;7.93;3.08;;;;;;;8.39;39.34;102110.81;5036666;28;20045;-62
2023/04/20 00:45:01;;;;;;;4.93;3.03;;;;;;;8.38;39.26;102109.16;5053452;28;20079;-61
2023/04/20 00:47:29;;;;;;;6.38;3.45;;;;;;;8.43;39.20;102103.91;5002006;28;20070;-62
2023/04/20 00:49:57;;;;;;;11.10;3.10;;;;;;;8.36;39.98;102105.81;5030285;28;20501;-63
2023/04/20 00:52:24;;;;;;;7.43;3.42;;;;;;;8.27;40.40;102096.28;5052133;28;20045;-61
2023/04/20 00:54:52;;;;;;;6.45;3.08;;;;;;;8.19;40.68;102093.84;5048742;28;20076;-62
2023/04/20 00:57:22;;;;;;;5.72;3.03;;;;;;;8.28;40.62;102087.94;5038147;28;20076;-63
2023/04/20 00:59:50;;;;;;;6.80;3.28;;;;;;;8.37;40.65;102091.22;5047265;28;20148;-62
2023/04/20 01:02:18;;;;;;;6.05;2.92;;;;;;;8.38;40.66;102081.19;5045915;28;20127;-64
2023/04/20 01:04:46;;;;;;;7.75;3.30;;;;;;;8.38;41.02;102073.84;5052662;28;20051;-63
2023/04/20 01:07:14;;;;;;;6.63;3.47;;;;;;;8.33;41.25;102079.13;5019183;28;20138;-64
2023/04/20 01:09:42;;;;;;;10.38;3.25;;;;;;;8.23;41.42;102068.75;5033939;28;20046;-64
2023/04/20 01:12:10;;;;;;;7.70;3.25;;;;;;;8.24;41.79;102058.72;5044800;28;20041;-63
2023/04/20 01:14:38;;;;;;;5.88;3.10;;;;;;;8.19;41.49;102047.72;5052366;28;20053;-64
2023/04/20 01:17:06;;;;;;;6.82;3.10;;;;;;;8.08;41.68;102043.81;5050818;28;20048;-63
2023/04/20 01:19:33;;;;;;;6.53;3.45;;;;;;;8.18;41.86;102041.44;5033771;28;20041;-63
2023/04/20 01:22:02;;;;;;;8.30;4.18;;;;;;;8.07;41.78;102048.41;5039992;28;20390;-62
2023/04/20 01:24:32;;;;;;;8.60;3.25;;;;;;;7.97;41.92;102034.50;5039501;28;20099;-63
2023/04/20 01:27:00;;;;;;;7.95;3.03;;;;;;;7.94;42.80;102026.81;5032303;28;20124;-64
2023/04/20 01:29:28;;;;;;;10.02;3.00;;;;;;;7.93;42.54;102025.16;5046784;28;20125;-62
2023/04/20 01:31:56;;;;;;;10.18;3.10;;;;;;;7.88;42.27;102028.50;5034962;28;20049;-62
2023/04/20 01:34:24;;;;;;;7.70;3.63;;;;;;;7.89;42.66;102024.78;5053777;28;20071;-61
2023/04/20 01:36:53;;;;;;;5.70;2.90;;;;;;;7.85;42.48;102012.69;5037171;28;20045;-63
2023/04/20 01:39:21;;;;;;;9.73;3.20;;;;;;;7.91;43.27;102010.97;5035894;28;20128;-64
2023/04/20 01:41:48;;;;;;;6.38;2.63;;;;;;;7.95;43.22;102011.38;5001208;28;20128;-65
2023/04/20 01:44:17;;;;;;;9.00;3.38;;;;;;;7.99;43.01;101997.13;5037022;28;20049;-64
2023/04/20 01:46:45;;;;;;;6.55;2.80;;;;;;;8.01;42.32;101992.31;5051248;28;20080;-64
2023/04/20 01:49:13;;;;;;;8.25;3.20;;;;;;;7.94;42.80;101994.25;5017729;28;20063;-62
2023/04/20 01:51:40;;;;;;;6.90;2.95;;;;;;;7.96;43.41;101986.72;5020314;28;20046;-62
2023/04/20 01:54:08;;;;;;;13.13;3.60;;;;;;;7.83;42.91;101981.41;5067618;28;20049;-62
2023/04/20 01:56:36;;;;;;;5.40;2.83;;;;;;;7.82;44.01;101977.84;5061922;28;20064;-63
2023/04/20 01:59:03;;;;;;;9.80;3.28;;;;;;;7.87;43.54;101977.19;5064141;28;20129;-65
2023/04/20 02:01:33;;;;;;;7.28;3.25;;;;;;;7.97;44.13;101977.53;5057008;28;20045;-60
2023/04/20 02:04:00;;;;;;;5.95;3.08;;;;;;;8.02;43.77;101977.69;5045643;28;20148;-62
2023/04/20 02:06:28;;;;;;;10.43;3.40;;;;;;;7.76;44.35;101970.59;5048577;28;20045;-62
2023/04/20 02:08:56;;;;;;;6.32;3.00;;;;;;;7.55;44.60;101971.81;5074202;28;20083;-61
2023/04/20 02:11:24;;;;;;;6.75;3.25;;;;;;;7.49;44.88;101969.97;5071747;28;20075;-63
2023/04/20 02:13:51;;;;;;;7.30;2.72;;;;;;;7.54;45.71;101964.72;5025593;28;20505;-62
2023/04/20 02:16:20;;;;;;;8.32;3.50;;;;;;;7.52;45.36;101963.28;5039124;28;20527;-62
2023/04/20 02:18:48;;;;;;;5.63;3.05;;;;;;;7.43;46.50;101976.25;5035628;28;20053;-62
2023/04/20 02:21:17;;;;;;;9.02;3.10;;;;;;;7.42;46.73;101961.03;5019882;28;20042;-63
2023/04/20 02:23:45;;;;;;;5.47;2.88;;;;;;;7.40;46.48;101965.84;5037043;28;20056;-62
2023/04/20 02:26:12;;;;;;;9.95;3.28;;;;;;;7.44;47.41;101961.66;5036271;28;20080;-65
2023/04/20 02:28:40;;;;;;;12.02;3.60;;;;;;;7.44;47.10;101961.66;5044725;28;20125;-64
2023/04/20 02:31:08;;;;;;;5.93;2.72;;;;;;;7.37;48.36;101955.44;5035552;28;20052;-62
2023/04/20 02:33:35;;;;;;;6.15;3.40;;;;;;;7.21;49.10;101957.59;5036361;28;20053;-61
2023/04/20 02:36:04;;;;;;;10.50;3.40;;;;;;;7.23;49.02;101960.94;5039326;28;20095;-61
2023/04/20 02:38:32;;;;;;;6.47;2.80;;;;;;;7.33;49.21;101962.34;5036301;28;20053;-61
2023/04/20 02:41:00;;;;;;;7.82;3.20;;;;;;;7.35;49.43;101947.53;5035540;28;20059;-62
2023/04/20 02:43:28;;;;;;;6.53;3.05;;;;;;;7.33;50.20;101948.78;5002813;28;20533;-63
2023/04/20 02:45:56;;;;;;;5.95;3.20;;;;;;;7.26;51.11;101946.13;5038923;28;20071;-62
2023/04/20 02:48:23;;;;;;;6.45;3.05;;;;;;;7.31;51.49;101940.03;5037804;28;20099;-62
2023/04/20 02:50:55;;;;;;;5.70;3.10;;;;;;;7.33;51.43;101946.09;5036030;28;20052;-63
2023/04/20 02:53:25;;;;;;;4.75;2.83;;;;;;;7.35;51.29;101935.84;5054525;28;20048;-63
2023/04/20 02:56:09;;;;;;;9.57;3.50;;;;;;;7.39;51.68;101932.50;5023834;28;20049;-62
2023/04/20 02:58:47;;;;;;;8.07;3.42;;;;;;;7.39;51.86;101937.09;5020527;28;20050;-62
2023/04/20 03:01:21;;;;;;;8.48;3.47;;;;;;;7.37;52.02;101928.34;5018792;28;20407;-62
2023/04/20 03:03:56;;;;;;;8.27;3.50;;;;;;;7.40;52.86;101922.47;5054243;28;20044;-62
2023/04/20 03:06:25;;;;;;;7.53;3.20;;;;;;;7.47;53.03;101925.97;5055234;28;20363;-61
2023/04/20 03:08:55;;;;;;;7.22;3.30;;;;;;;7.57;52.64;101920.88;5042285;28;20053;-62
2023/04/20 03:11:44;;;;;;;5.97;3.10;;;;;;;7.63;52.89;101917.28;5021425;28;20466;-63
2023/04/20 03:14:20;;;;;;;8.48;3.20;;;;;;;7.61;53.16;101913.97;5035134;28;20053;-63
2023/04/20 03:16:48;;;;;;;6.53;3.25;;;;;;;7.56;53.30;101911.09;5002371;28;20405;-64
2023/04/20 03:19:16;;;;;;;5.90;2.97;;;;;;;7.53;53.63;101903.41;5035268;28;20049;-62
2023/04/20 03:21:44;;;;;;;9.23;3.97;;;;;;;7.52;54.35;101909.03;5043186;28;20051;-62
2023/04/20 03:24:12;;;;;;;7.32;3.22;;;;;;;7.47;55.29;101912.41;5028000;28;20555;-63
2023/04/20 03:26:40;;;;;;;11.00;3.50;;;;;;;7.53;55.31;101903.41;5034440;28;20051;-63
2023/04/20 03:29:16;;;;;;;10.18;3.45;;;;;;;7.62;54.75;101902.03;5069927;28;20060;-63
2023/04/20 03:31:45;;;;;;;9.77;3.80;;;;;;;7.66;55.47;101902.44;5038067;28;20057;-61
2023/04/20 03:34:14;;;;;;;7.05;3.30;;;;;;;7.57;56.37;101891.03;5038045;28;20486;-61
2023/04/20 03:36:43;;;;;;;7.53;3.75;;;;;;;7.56;56.09;101889.38;5028304;28;20549;-63
2023/04/20 03:39:11;;;;;;;9.93;3.50;;;;;;;7.55;57.23;101881.47;5050775;28;20152;-61
2023/04/20 03:41:39;;;;;;;5.75;3.33;;;;;;;7.53;56.79;101887.13;5052897;28;20045;-62
2023/04/20 03:44:07;;;;;;;6.25;3.17;;;;;;;7.50;58.01;101890.25;5055139;28;20076;-64
2023/04/20 03:46:36;;;;;;;6.30;3.42;;;;;;;7.56;57.99;101888.56;5054418;28;20091;-62
2023/04/20 03:49:04;;;;;;;7.95;3.67;;;;;;;7.55;58.89;101882.31;5003042;28;20080;-63
2023/04/20 03:51:33;;;;;;;6.18;3.50;;;;;;;7.50;59.09;101881.31;5032884;28;20459;-62
2023/04/20 03:54:00;;;;;;;6.25;3.20;;;;;;;7.51;59.94;101880.25;5053303;28;20485;-62
2023/04/20 03:56:29;;;;;;;11.80;3.40;;;;;;;7.55;60.52;101887.75;5036397;28;20540;-60
2023/04/20 03:58:57;;;;;;;11.30;3.97;;;;;;;7.56;60.75;101872.28;5050891;28;20045;-62
2023/04/20 04:01:26;;;;;;;7.47;3.40;;;;;;;7.58;61.44;101868.31;5031656;28;20149;-61
2023/04/20 04:03:54;;;;;;;5.95;3.22;;;;;;;7.66;61.95;101878.84;5016629;28;20057;-61
2023/04/20 04:06:22;;;;;;;6.07;3.13;;;;;;;7.69;62.30;101872.16;5049680;28;20071;-65
2023/04/20 04:08:52;;;;;;;6.78;3.38;;;;;;;7.77;62.15;101868.31;5031996;28;20132;-64
2023/04/20 04:11:20;;;;;;;8.18;3.30;;;;;;;7.88;62.06;101867.59;5032272;28;20061;-67
2023/04/20 04:13:48;;;;;;;7.72;3.80;;;;;;;7.80;61.72;101855.16;5016033;28;20107;-63
2023/04/20 04:16:16;;;;;;;7.40;3.28;;;;;;;7.83;62.59;101862.00;5016054;28;20096;-62
2023/04/20 04:18:45;;;;;;;7.72;3.35;;;;;;;7.85;61.75;101849.06;5032585;28;20049;-64
2023/04/20 04:21:13;;;;;;;9.77;3.78;;;;;;;7.75;62.56;101846.88;5017132;28;20049;-63
2023/04/20 04:23:47;;;;;;;7.93;3.70;;;;;;;7.78;62.17;101835.56;5049926;28;20040;-63
2023/04/20 04:26:44;;;;;;;6.78;3.60;;;;;;;7.81;62.21;101826.13;5045276;28;20048;-63
2023/04/20 04:29:13;;;;;;;6.47;2.92;;;;;;;7.83;62.40;101841.13;5034342;28;20055;-63
2023/04/20 04:31:42;;;;;;;8.55;3.70;;;;;;;7.86;62.25;101824.44;5054148;28;20052;-63
2023/04/20 04:34:17;;;;;;;7.00;3.50;;;;;;;7.75;62.59;101827.06;5036622;28;20188;-62
2023/04/20 04:36:49;;;;;;;7.65;4.00;;;;;;;7.68;62.99;101822.50;5046062;28;20045;-62
2023/04/20 04:39:24;;;;;;;7.95;3.55;;;;;;;7.73;63.14;101829.16;5050297;28;20065;-63
2023/04/20 04:42:01;;;;;;;7.47;3.42;;;;;;;7.75;63.58;101827.06;5033650;28;20381;-62
2023/04/20 04:44:38;;;;;;;10.50;3.53;;;;;;;7.75;63.32;101827.88;5049566;28;20405;-62
2023/04/20 04:47:08;;;;;;;7.35;3.85;;;;;;;7.68;64.44;101814.38;5049229;28;20065;-64
2023/04/20 04:49:36;;;;;;;8.43;3.78;;;;;;;7.67;64.07;101817.28;5023630;28;20041;-66
2023/04/20 04:52:04;;;;;;;11.95;3.88;;;;;;;7.72;64.60;101816.63;5053757;28;20049;-62
2023/04/20 04:54:31;;;;;;;7.47;3.33;;;;;;;7.72;63.65;101817.47;5047580;28;20104;-61
2023/04/20 04:56:59;;;;;;;10.45;3.85;;;;;;;7.74;64.53;101820.78;5052370;28;20084;-62
2023/04/20 04:59:27;;;;;;;6.30;3.55;;;;;;;7.73;63.98;101823.72;5037757;28;20061;-62
2023/04/20 05:01:54;;;;;;;9.73;3.95;;;;;;;7.72;64.27;101827.47;5032206;28;20091;-64
2023/04/20 05:04:22;;;;;;;8.52;3.95;;;;;;;7.71;64.81;101814.97;5033936;28;20461;-64
2023/04/20 05:06:50;;;;;;;7.03;3.90;;;;;;;7.66;64.91;101813.75;5037163;28;20095;-63
2023/04/20 05:09:19;;;;;;;8.85;3.88;;;;;;;7.66;65.83;101819.19;5025770;28;20072;-62
2023/04/20 05:11:47;;;;;;;7.88;4.15;;;;;;;7.62;65.75;101812.53;5037292;28;20049;-63
2023/04/20 05:14:15;;;;;;;7.20;4.30;;;;;;;7.61;65.91;101813.59;5034701;28;20399;-62
2023/04/20 05:16:43;;;;;;;7.68;4.32;;;;;;;7.59;65.96;101812.16;5036498;28;20124;-61
2023/04/20 05:19:10;;;;;;;9.40;3.95;;;;;;;7.60;66.28;101811.97;5004553;28;20056;-62
2023/04/20 05:21:42;;;;;;;11.65;4.03;;;;;;;7.67;65.80;101798.31;5034413;28;20493;-61
2023/04/20 05:24:10;;;;;;;8.55;3.70;;;;;;;7.65;65.86;101812.13;5033045;28;20131;-63
2023/04/20 05:26:41;;;;;;;7.15;3.88;;;;;;;7.68;66.11;101811.66;5015688;28;20112;-62
2023/04/20 05:29:11;;;;;;;9.52;4.43;;;;;;;7.75;65.95;101810.78;5042591;28;20076;-61
2023/04/20 05:31:39;;;;;;;9.00;4.15;;;;;;;7.73;67.28;101810.16;5046994;28;20121;-64
2023/04/20 05:34:07;;;;;;;8.48;4.13;;;;;;;7.64;67.31;101806.91;5040312;28;20145;-61
2023/04/20 05:36:34;;;;;;;9.57;4.10;;;;;;;7.65;67.07;101809.41;4343414;28;10000184;-68
2023/04/20 05:39:02;;;;;;;9.32;4.53;;;;;;;7.65;67.94;101806.69;5038198;28;20056;-64
2023/04/20 05:41:30;;;;;;;10.98;4.30;;;;;;;7.66;68.06;101792.06;5035028;28;20501;-65
2023/04/20 05:43:58;;;;;;;11.48;4.72;;;;;;;7.68;68.03;101792.66;5034433;28;20053;-64
2023/04/20 05:46:26;;;;;;;8.50;4.22;;;;;;;7.66;68.19;101792.06;5067152;28;20046;-66
2023/04/20 05:48:54;;;;;;;10.70;4.60;;;;;;;7.70;67.76;101803.31;5039496;28;20041;-65
2023/04/20 05:51:22;;;;;;;9.10;4.32;;;;;;;7.74;68.30;101798.25;5048631;28;20053;-66
2023/04/20 05:53:49;;;;;;;8.10;4.22;;;;;;;7.79;67.77;101801.97;5037826;28;20122;-68
2023/04/20 05:56:17;;;;;;;8.13;3.85;;;;;;;7.78;68.17;101791.31;5052941;28;20077;-65
2023/04/20 05:58:45;;;;;;;9.43;4.55;;;;;;;7.78;68.36;101794.03;5041492;28;20064;-64
2023/04/20 06:01:12;;;;;;;8.98;4.70;;;;;;;7.80;69.06;101797.34;5060353;28;20057;-65
2023/04/20 06:03:40;;;;;;;12.93;4.93;;;;;;;7.84;68.98;101785.84;5052891;28;20057;-62
2023/04/20 06:06:08;;;;;;;9.80;4.45;;;;;;;7.89;69.31;101790.59;5063602;28;20041;-65
2023/04/20 06:08:36;;;;;;;12.13;4.35;;;;;;;7.87;68.81;101784.56;5034777;28;20038;-61
2023/04/20 06:11:04;;;;;;;9.80;4.45;;;;;;;7.93;69.00;101786.34;5039060;28;20049;-65
2023/04/20 06:13:31;;;;;;;10.68;4.38;;;;;;;7.95;69.17;101784.22;5043965;28;20100;-62
2023/04/20 06:15:59;;;;;;;8.18;4.05;;;;;;;7.97;69.50;101784.84;5028226;28;20065;-64
2023/04/20 06:18:28;;;;;;;8.95;4.20;;;;;;;8.00;69.65;101792.53;5025985;28;20108;-63
2023/04/20 06:20:55;;;;;;;9.50;4.38;;;;;;;8.01;69.97;101799.63;5032354;28;20436;-64
2023/04/20 06:23:23;;;;;;;11.25;4.50;;;;;;;8.04;69.44;101795.63;5055473;28;20047;-64
2023/04/20 06:25:51;;;;;;;11.38;4.50;;;;;;;8.06;69.54;101790.81;5059371;28;20057;-68
2023/04/20 06:28:19;;;;;;;8.77;4.50;;;;;;;8.03;69.20;101783.94;5024871;28;20072;-65
2023/04/20 06:30:46;;;;;;;8.00;4.10;;;;;;;8.10;69.15;101784.69;5029430;28;20494;-66
2023/04/20 06:33:16;;;;;;;8.32;4.40;;;;;;;8.13;69.47;101779.84;5029771;28;20065;-64
2023/04/20 06:35:44;;;;;;;13.10;4.40;;;;;;;8.10;69.87;101771.13;5034332;28;20053;-66
2023/04/20 06:38:11;;;;;;;12.43;4.70;;;;;;;8.13;70.32;101775.25;5031474;28;20425;-66
2023/04/20 06:40:39;;;;;;;14.20;4.88;;;;;;;8.11;69.47;101782.81;5038560;28;20600;-66
2023/04/20 06:43:07;;;;;;;9.15;4.72;;;;;;;8.15;69.51;101783.97;5046043;28;20045;-64
2023/04/20 06:45:35;;;;;;;12.45;4.13;;;;;;;8.13;69.63;101790.69;5042181;28;20049;-65
2023/04/20 06:48:03;;;;;;;7.05;3.45;;;;;;;8.14;69.11;101787.75;5037904;28;20054;-64
2023/04/20 06:50:31;;;;;;;15.45;4.43;;;;;;;8.24;74.46;101781.78;5044355;28;20211;-67
2023/04/20 06:52:58;;;;;;;9.18;4.32;;;;;;;8.38;68.50;101777.84;5049349;28;20115;-62
2023/04/20 06:55:26;;;;;;;10.75;4.00;;;;;;;8.22;67.73;101789.34;5036965;28;20075;-62
2023/04/20 06:57:54;;;;;;;13.13;5.50;;;;;;;8.03;68.67;101778.53;5036069;28;20033;-64
2023/04/20 07:00:22;;;;;;;9.63;4.75;;;;;;;8.04;68.54;101772.03;5043366;28;20056;-63
2023/04/20 07:02:50;;;;;;;13.93;4.72;;;;;;;8.05;68.57;101772.84;5047417;28;20405;-63
2023/04/20 07:05:18;;;;;;;8.50;4.43;;;;;;;8.02;69.02;101773.31;5018588;28;20132;-63
2023/04/20 07:07:46;;;;;;;12.80;4.47;;;;;;;7.95;68.70;101783.41;5033202;28;20057;-62
2023/04/20 07:10:14;;;;;;;7.53;3.88;;;;;;;7.96;69.26;101779.63;5054669;28;20088;-63
2023/04/20 07:12:43;;;;;;;8.82;3.90;;;;;;;7.94;69.72;101776.31;5055329;28;20049;-65
2023/04/20 07:15:11;;;;;;;9.75;4.03;;;;;;;7.96;69.60;101791.34;5031076;28;20078;-65
2023/04/20 07:17:39;;;;;;;8.77;4.18;;;;;;;7.99;70.14;101785.44;5039348;28;20041;-61
2023/04/20 07:20:08;;;;;;;9.40;4.20;;;;;;;7.91;70.54;101783.03;5051759;28;20508;-63
2023/04/20 07:22:37;;;;;;;8.40;4.07;;;;;;;7.88;70.77;101788.91;5056272;28;20072;-65
2023/04/20 07:25:07;;;;;;;8.30;4.20;;;;;;;7.79;70.51;101780.25;5042975;28;20122;-62
2023/04/20 07:27:36;;;;;;;8.85;3.80;;;;;;;7.87;71.18;101777.22;5038351;28;20058;-60
2023/04/20 07:30:05;;;;;;;10.48;4.25;;;;;;;7.88;70.80;101778.88;5044101;28;20071;-62
2023/04/20 07:32:33;;;;;;;5.85;3.42;;;;;;;7.92;70.50;101771.13;5053069;28;20048;-62
2023/04/20 07:35:02;;;;;;;12.98;4.47;;;;;;;8.00;71.12;101765.38;5055663;28;20049;-62
2023/04/20 07:37:32;;;;;;;7.20;3.95;;;;;;;8.03;70.71;101759.53;5045045;28;20077;-63
2023/04/20 07:40:00;;;;;;;6.22;3.65;;;;;;;8.17;70.65;101765.59;5042823;28;20103;-65
2023/04/20 07:42:28;;;;;;;7.28;4.05;;;;;;;8.20;70.81;101769.72;5040162;28;20091;-63
2023/04/20 07:44:56;;;;;;;9.13;4.50;;;;;;;8.24;70.13;101765.50;5037722;28;20056;-64
2023/04/20 07:47:24;;;;;;;9.50;3.67;;;;;;;8.22;70.30;101767.63;5054361;28;20065;-63
2023/04/20 07:49:51;;;;;;;7.68;3.60;;;;;;;8.27;70.21;101767.75;5006202;28;20054;-64
2023/04/20 07:52:19;;;;;;;9.88;4.22;;;;;;;8.25;71.17;101772.59;5032531;28;20126;-65
2023/04/20 07:54:47;;;;;;;9.23;4.10;;;;;;;8.27;71.23;101771.31;5002780;28;20111;-63
2023/04/20 07:57:15;;;;;;;8.27;3.78;;;;;;;8.31;70.89;101777.09;5034676;28;20045;-64
2023/04/20 07:59:45;;;;;;;9.48;4.00;;;;;;;8.24;70.95;101769.03;5039211;28;20061;-61
2023/04/20 08:02:13;;;;;;;7.88;3.45;;;;;;;8.31;71.09;101766.25;5056597;28;20163;-64
2023/04/20 08:04:43;;;;;;;9.50;4.20;;;;;;;8.43;70.89;101769.88;4999253;28;20049;-62
2023/04/20 08:07:11;;;;;;;7.32;3.65;;;;;;;8.41;70.07;101771.97;5037935;28;20133;-64
2023/04/20 08:09:38;;;;;;;8.90;3.80;;;;;;;8.43;70.67;101760.91;5052790;28;20056;-62
2023/04/20 08:12:06;;;;;;;7.55;3.70;;;;;;;8.42;70.96;101770.94;5038693;28;20060;-66
2023/04/20 08:14:34;;;;;;;9.50;3.55;;;;;;;8.39;70.75;101770.53;5034768;28;20073;-65
2023/04/20 08:17:02;;;;;;;7.80;4.00;;;;;;;8.37;71.73;101769.91;5018023;28;20060;-64
2023/04/20 08:19:30;;;;;;;11.20;3.97;;;;;;;8.27;71.91;101748.75;5048494;28;20046;-64
2023/04/20 08:21:57;;;;;;;7.63;4.07;;;;;;;8.31;72.65;101758.91;5036939;28;20045;-65
2023/04/20 08:24:28;;;;;;;10.55;3.60;;;;;;;8.41;72.70;101763.84;5035841;28;20136;-64
2023/04/20 08:26:57;;;;;;;8.80;3.65;;;;;;;8.38;72.19;101750.69;5034310;28;20107;-63
2023/04/20 08:29:25;;;;;;;10.80;4.07;;;;;;;8.42;73.19;101751.94;5015885;28;20412;-65
2023/04/20 08:31:53;;;;;;;6.95;3.40;;;;;;;8.51;72.83;101755.97;5034046;28;20079;-64
2023/04/20 08:34:21;;;;;;;6.38;3.78;;;;;;;8.57;72.44;101739.81;5033406;28;20481;-61
2023/04/20 08:36:49;;;;;;;6.25;3.70;;;;;;;8.57;72.14;101746.06;5033233;28;20052;-62
2023/04/20 08:39:22;;;;;;;6.78;3.72;;;;;;;8.56;71.86;101738.97;5040415;28;20067;-62
2023/04/20 08:41:52;;;;;;;8.75;3.25;;;;;;;8.55;72.70;101747.34;5052629;28;20045;-63
2023/04/20 08:44:20;;;;;;;6.88;3.55;;;;;;;8.55;73.06;101750.06;5033002;28;20041;-62
2023/04/20 08:46:49;;;;;;;6.82;3.65;;;;;;;8.49;72.37;101752.66;5016780;28;20045;-63
2023/04/20 08:49:18;;;;;;;9.65;3.75;;;;;;;8.46;73.04;101738.69;5034881;28;20052;-62
2023/04/20 08:51:48;;;;;;;6.93;3.88;;;;;;;8.48;73.58;101742.84;5036636;28;20045;-62
2023/04/20 08:54:16;;;;;;;9.20;4.35;;;;;;;8.51;72.31;101738.81;5050349;28;20484;-61
2023/04/20 08:56:47;;;;;;;8.23;3.78;;;;;;;8.47;72.68;101746.63;5035570;28;20448;-60
2023/04/20 08:59:15;;;;;;;9.27;3.88;;;;;;;8.48;72.84;101742.84;5032156;28;20521;-62
2023/04/20 09:01:44;;;;;;;8.15;3.65;;;;;;;8.46;73.48;101736.81;5034488;28;20504;-62
2023/04/20 09:04:15;;;;;;;8.23;3.38;;;;;;;8.53;73.96;101732.09;5034507;28;20088;-62
2023/04/20 09:06:45;;;;;;;7.55;3.67;;;;;;;8.66;72.71;101725.66;5042761;28;20100;-61
2023/04/20 09:09:13;;;;;;;8.63;3.75;;;;;;;8.69;72.62;101736.06;5032404;28;20504;-63
2023/04/20 09:11:41;;;;;;;7.80;3.67;;;;;;;8.68;72.54;101731.69;5033912;28;20053;-63
2023/04/20 09:14:11;;;;;;;7.05;3.58;;;;;;;8.73;72.93;101733.69;5032683;28;20049;-62
2023/04/20 09:16:50;;;;;;;9.98;4.10;;;;;;;8.68;73.77;101734.41;5032142;28;20481;-63
2023/04/20 09:19:24;;;;;;;6.80;3.72;;;;;;;8.49;74.81;101736.38;5053205;28;20072;-62
2023/04/20 09:21:54;;;;;;;6.28;3.70;;;;;;;8.49;75.54;101725.50;5039925;28;20104;-63
2023/04/20 09:24:25;;;;;;;10.80;3.65;;;;;;;8.48;75.30;101737.41;5014194;28;20125;-62
2023/04/20 09:26:53;;;;;;;8.43;3.40;;;;;;;8.48;75.45;101731.97;5016592;28;20477;-62
2023/04/20 09:29:22;;;;;;;8.95;3.92;;;;;;;8.50;75.25;101724.44;5049791;28;20076;-62
2023/04/20 09:31:50;;;;;;;8.40;3.75;;;;;;;8.55;76.03;101723.72;5036248;28;20136;-64
2023/04/20 09:34:19;;;;;;;10.98;3.90;;;;;;;8.46;76.30;101728.66;5031542;28;20092;-62
2023/04/20 09:36:49;;;;;;;8.73;4.25;;;;;;;8.42;76.08;101730.19;5038810;28;20053;-64
2023/04/20 09:39:17;;;;;;;7.68;3.80;;;;;;;8.30;77.23;101732.03;5032894;28;20049;-59
2023/04/20 09:41:46;;;;;;;10.18;4.00;;;;;;;8.29;77.31;101739.31;5015123;28;20041;-64
2023/04/20 09:44:15;;;;;;;8.07;4.00;;;;;;;8.30;77.08;101730.13;5048764;28;20057;-62
2023/04/20 09:46:44;;;;;;;6.13;3.80;;;;;;;8.38;77.71;101712.69;5048434;28;20091;-62
2023/04/20 09:49:13;;;;;;;9.15;4.28;;;;;;;8.36;77.32;101717.50;5033044;28;20468;-61
2023/04/20 09:51:44;;;;;;;8.10;3.80;;;;;;;8.36;77.64;101720.22;5033400;28;20083;-61
2023/04/20 09:54:13;;;;;;;7.00;4.25;;;;;;;8.41;77.31;101711.41;5045865;28;20041;-61
2023/04/20 09:56:41;;;;;;;8.82;4.10;;;;;;;8.36;77.48;101720.22;5050523;28;20052;-64
2023/04/20 09:59:08;;;;;;;10.55;4.60;;;;;;;8.37;77.89;101711.03;5048891;28;20056;-62
2023/04/20 10:01:37;;;;;;;9.55;4.57;;;;;;;8.37;77.72;101716.47;5033803;28;20123;-61
2023/04/20 10:04:09;;;;;;;11.10;4.25;;;;;;;8.36;78.08;101709.34;5040640;28;20057;-63
2023/04/20 10:06:38;;;;;;;7.60;4.32;;;;;;;8.36;78.44;101713.97;5028377;28;20042;-63
2023/04/20 10:09:07;;;;;;;9.48;4.07;;;;;;;8.37;77.89;101713.75;5066866;28;20493;-63
2023/04/20 10:11:37;;;;;;;7.53;3.75;;;;;;;8.35;77.19;101718.56;5051568;28;20045;-63
2023/04/20 10:14:22;;;;;;;11.35;4.30;;;;;;;8.36;78.20;101709.34;5052876;28;20110;-63
2023/04/20 10:17:07;;;;;;;8.55;4.22;;;;;;;8.37;78.43;101716.47;5038320;28;20045;-62
2023/04/20 10:19:46;;;;;;;10.48;4.30;;;;;;;8.38;78.92;101712.69;5028017;28;20101;-62
2023/04/20 10:22:29;;;;;;;9.52;3.88;;;;;;;8.41;78.44;101701.38;5053244;28;20099;-63
2023/04/20 10:24:57;;;;;;;10.32;4.18;;;;;;;8.45;77.87;101713.44;5046721;28;20088;-61
2023/04/20 10:27:25;;;;;;;10.00;4.32;;;;;;;8.52;77.13;101703.31;5037041;28;20041;-62
2023/04/20 10:29:53;;;;;;;10.50;4.45;;;;;;;8.52;76.87;101697.88;4341152;28;10000487;-60
2023/04/20 10:32:25;;;;;;;9.70;4.30;;;;;;;8.58;78.17;101690.66;5022958;28;20128;-64
2023/04/20 10:35:07;;;;;;;7.93;3.85;;;;;;;8.59;75.76;101689.63;5034988;28;20045;-64
2023/04/20 10:37:45;;;;;;;9.98;4.15;;;;;;;8.62;74.98;101685.59;5071565;28;20056;-65
2023/04/20 10:40:13;;;;;;;8.35;3.92;;;;;;;8.59;75.36;101684.19;5038722;28;20128;-66
2023/04/20 10:42:44;;;;;;;8.75;3.83;;;;;;;8.59;75.07;101676.03;5033865;28;20125;-64
2023/04/20 10:45:12;;;;;;;7.22;4.03;;;;;;;8.70;75.10;101677.09;5033478;28;20131;-65
2023/04/20 10:47:40;;;;;;;9.55;4.15;;;;;;;8.87;74.57;101682.66;5023726;28;20041;-65
2023/04/20 10:50:13;;;;;;;7.82;4.50;;;;;;;8.92;74.19;101671.91;5028429;28;20516;-63
2023/04/20 10:52:43;;;;;;;6.93;3.97;;;;;;;9.03;73.63;101670.28;5012671;28;20061;-64
2023/04/20 10:55:24;;;;;;;7.22;4.10;;;;;;;9.00;73.06;101671.59;5011162;28;20520;-63
2023/04/20 10:57:52;;;;;;;7.40;4.07;;;;;;;9.04;73.58;101661.88;4993021;28;20119;-65
2023/04/20 11:00:24;;;;;;;17.00;4.85;;;;;;;9.13;73.34;101656.91;5026604;28;20063;-63
2023/04/20 11:02:53;;;;;;;8.45;4.18;;;;;;;9.15;72.52;101652.06;5052164;28;20059;-62
2023/04/20 11:05:25;;;;;;;7.50;4.38;;;;;;;9.30;73.34;101649.66;5052595;28;20060;-65
2023/04/20 11:07:59;;;;;;;8.35;4.10;;;;;;;9.32;70.25;101650.25;5037862;28;20454;-65
2023/04/20 11:10:39;;;;;;;6.68;3.72;;;;;;;9.18;69.98;101652.41;5012181;28;20053;-63
2023/04/20 11:13:17;;;;;;;8.20;3.70;;;;;;;9.16;70.01;101645.56;5011882;28;20077;-63
2023/04/20 11:15:55;;;;;;;8.27;4.28;;;;;;;9.22;68.60;101643.78;5012534;28;20057;-67
2023/04/20 11:18:23;;;;;;;12.23;5.25;;;;;;;9.24;70.69;101645.22;5029988;28;20049;-62
2023/04/20 11:20:54;;;;;;;8.05;4.65;;;;;;;9.19;69.32;101650.53;5033044;28;20068;-62
2023/04/20 11:23:25;;;;;;;11.85;4.43;;;;;;;9.13;70.29;101640.59;5028809;28;20076;-62
2023/04/20 11:25:54;;;;;;;9.40;4.80;;;;;;;9.09;70.44;101639.41;5019129;28;20107;-62
2023/04/20 11:28:29;;;;;;;6.82;4.20;;;;;;;9.07;71.20;101636.94;5036943;28;20106;-61
2023/04/20 11:30:56;;;;;;;11.88;4.88;;;;;;;9.07;69.94;101633.41;5042858;28;20092;-63
2023/04/20 11:33:27;;;;;;;8.63;4.13;;;;;;;9.05;70.42;101635.53;5045240;28;20072;-60
2023/04/20 11:35:56;;;;;;;7.50;4.57;;;;;;;8.96;70.68;101622.28;5037963;28;20048;-63
2023/04/20 11:38:34;;;;;;;10.50;5.20;;;;;;;8.96;69.67;101627.72;5025085;28;20056;-64
2023/04/20 11:41:06;;;;;;;7.97;4.78;;;;;;;8.92;70.94;101623.00;5044180;28;20437;-64